createdAt,value
2022-12-24T00:00:00.146Z,14.37
2022-12-24T00:02:27.730Z,26.90
2022-12-24T00:05:00.616Z,16.40
2022-12-24T00:07:28.335Z,22.80
2022-12-24T00:09:56.836Z,17.43
2022-12-24T00:12:24.269Z,14.20
2022-12-24T00:14:51.381Z,15.63
2022-12-24T00:17:18.464Z,29.47
2022-12-24T00:19:45.628Z,27.80
2022-12-24T00:22:12.755Z,18.80
2022-12-24T00:24:39.868Z,20.73
2022-12-24T00:27:08.411Z,21.40
2022-12-24T00:29:35.558Z,24.50
2022-12-24T00:32:02.653Z,26.63
2022-12-24T00:34:29.796Z,29.63
2022-12-24T00:36:56.900Z,24.33
2022-12-24T00:39:24.034Z,20.07
2022-12-24T00:41:51.156Z,20.00
2022-12-24T00:44:19.640Z,26.17
2022-12-24T00:46:46.808Z,22.30
2022-12-24T00:49:14.207Z,24.80
2022-12-24T00:51:41.311Z,26.23
2022-12-24T00:54:08.422Z,20.23
2022-12-24T00:56:35.608Z,23.33
2022-12-24T00:59:02.728Z,20.07
2022-12-24T01:01:31.423Z,23.30
2022-12-24T01:03:58.668Z,35.17
2022-12-24T01:06:25.806Z,25.87
2022-12-24T01:08:52.939Z,22.50
2022-12-24T01:11:20.256Z,29.10
2022-12-24T01:13:47.388Z,30.67
2022-12-24T01:16:15.397Z,28.20
2022-12-24T01:18:43.916Z,28.07
2022-12-24T01:21:11.050Z,22.30
2022-12-24T01:23:38.427Z,21.40
2022-12-24T01:26:05.759Z,24.83
2022-12-24T01:28:33.405Z,35.53
2022-12-24T01:31:00.561Z,26.87
2022-12-24T01:33:28.846Z,21.03
2022-12-24T01:35:57.325Z,25.77
2022-12-24T01:38:24.428Z,21.60
2022-12-24T01:40:51.537Z,35.57
2022-12-24T01:43:19.855Z,28.47
2022-12-24T01:45:48.807Z,19.37
2022-12-24T01:48:32.066Z,17.93
2022-12-24T01:51:01.883Z,24.43
2022-12-24T01:53:29.208Z,17.70
2022-12-24T01:55:56.432Z,29.23
2022-12-24T01:58:24.830Z,28.43
2022-12-24T02:00:51.948Z,26.67
2022-12-24T02:03:19.473Z,22.87
2022-12-24T02:05:48.173Z,33.40
2022-12-24T02:08:17.140Z,22.23
2022-12-24T02:10:44.580Z,27.33
2022-12-24T02:13:11.834Z,35.23
2022-12-24T02:15:43.342Z,31.30
2022-12-24T02:18:15.518Z,16.87
2022-12-24T02:20:57.988Z,26.83
2022-12-24T02:23:44.583Z,22.80
2022-12-24T02:26:18.921Z,27.93
2022-12-24T02:28:55.585Z,28.40
2022-12-24T02:31:28.290Z,27.37
2022-12-24T02:33:58.165Z,27.70
2022-12-24T02:36:28.835Z,25.77
2022-12-24T02:39:00.111Z,22.80
2022-12-24T02:41:30.705Z,28.37
2022-12-24T02:43:58.498Z,31.33
2022-12-24T02:46:29.373Z,18.93
2022-12-24T02:48:57.269Z,35.70
2022-12-24T02:51:24.942Z,36.60
2022-12-24T02:53:52.102Z,21.57
2022-12-24T02:56:32.491Z,20.63
2022-12-24T02:59:08.422Z,23.50
2022-12-24T03:01:43.750Z,34.07
2022-12-24T03:04:16.165Z,24.43
2022-12-24T03:06:44.976Z,22.17
2022-12-24T03:09:15.236Z,26.40
2022-12-24T03:11:45.069Z,17.80
2022-12-24T03:14:12.801Z,14.87
2022-12-24T03:16:42.662Z,23.83
2022-12-24T03:19:10.378Z,14.30
2022-12-24T03:21:39.722Z,27.80
2022-12-24T03:24:07.027Z,34.70
2022-12-24T03:26:34.534Z,22.33
2022-12-24T03:29:05.151Z,21.73
2022-12-24T03:31:41.773Z,26.23
2022-12-24T03:34:09.046Z,20.63
2022-12-24T03:36:36.211Z,18.50
2022-12-24T03:39:04.007Z,19.63
2022-12-24T03:41:31.127Z,12.93
2022-12-24T03:43:58.259Z,17.67
2022-12-24T03:46:25.485Z,17.63
2022-12-24T03:48:53.958Z,15.10
2022-12-24T03:51:22.874Z,19.73
2022-12-24T03:53:50.002Z,14.87
2022-12-24T03:56:17.103Z,15.10
2022-12-24T03:58:44.219Z,15.60
2022-12-24T04:01:11.451Z,22.43
2022-12-24T04:03:38.707Z,14.70
2022-12-24T04:06:08.846Z,14.00
2022-12-24T04:08:36.459Z,18.97
2022-12-24T04:11:09.650Z,14.63
2022-12-24T04:13:37.091Z,14.97
2022-12-24T04:16:05.132Z,15.27
2022-12-24T04:18:32.259Z,21.03
2022-12-24T04:20:59.571Z,17.67
2022-12-24T04:23:30.931Z,12.87
2022-12-24T04:25:59.499Z,13.63
2022-12-24T04:28:26.629Z,14.50
2022-12-24T04:30:58.199Z,10.60
2022-12-24T04:33:25.335Z,11.03
2022-12-24T04:35:52.585Z,21.30
2022-12-24T04:38:19.708Z,19.83
2022-12-24T04:40:48.200Z,16.93
2022-12-24T04:43:15.507Z,16.47
2022-12-24T04:45:42.640Z,13.57
2022-12-24T04:48:09.731Z,11.60
2022-12-24T04:50:36.857Z,7.10
2022-12-24T04:53:03.948Z,14.70
2022-12-24T04:55:31.081Z,13.37
2022-12-24T04:57:59.525Z,10.77
2022-12-24T05:00:26.683Z,13.20
2022-12-24T05:02:53.951Z,11.90
2022-12-24T05:05:21.194Z,10.00
2022-12-24T05:07:48.315Z,12.90
2022-12-24T05:10:15.517Z,17.50
2022-12-24T05:12:42.618Z,14.83
2022-12-24T05:15:11.218Z,15.23
2022-12-24T05:17:38.309Z,17.90
2022-12-24T05:20:05.961Z,19.63
2022-12-24T05:22:33.073Z,16.77
2022-12-24T05:25:00.174Z,12.10
2022-12-24T05:27:27.539Z,17.10
2022-12-24T05:29:55.462Z,14.87
2022-12-24T05:32:23.883Z,10.73
2022-12-24T05:34:51.082Z,11.37
2022-12-24T05:37:18.365Z,18.53
2022-12-24T05:39:45.509Z,12.63
2022-12-24T05:42:12.617Z,13.93
2022-12-24T05:44:39.751Z,20.07
2022-12-24T05:47:06.891Z,12.17
2022-12-24T05:49:35.361Z,13.73
2022-12-24T05:52:02.474Z,14.53
2022-12-24T05:54:29.654Z,17.70
2022-12-24T05:56:56.796Z,17.30
2022-12-24T05:59:23.916Z,13.30
2022-12-24T06:01:51.049Z,23.20
2022-12-24T06:04:23.066Z,22.17
2022-12-24T06:06:55.072Z,23.97
2022-12-24T06:09:22.188Z,20.30
2022-12-24T06:11:49.260Z,23.33
2022-12-24T06:14:16.378Z,18.77
2022-12-24T06:16:43.520Z,24.63
2022-12-24T06:19:10.665Z,21.10
2022-12-24T06:21:37.753Z,20.13
2022-12-24T06:24:06.795Z,16.47
2022-12-24T06:26:33.971Z,24.60
2022-12-24T06:29:01.113Z,28.57
2022-12-24T06:31:28.241Z,17.10
2022-12-24T06:33:55.550Z,21.87
2022-12-24T06:36:23.621Z,18.77
2022-12-24T06:38:50.809Z,17.40
2022-12-24T06:41:19.644Z,17.57
2022-12-24T06:43:47.206Z,14.10
2022-12-24T06:46:14.795Z,26.03
2022-12-24T06:48:42.889Z,26.20
2022-12-24T06:51:10.024Z,20.23
2022-12-24T06:53:37.167Z,23.40
2022-12-24T06:56:04.470Z,24.27
2022-12-24T06:58:33.465Z,22.20
2022-12-24T07:01:01.475Z,26.90
2022-12-24T07:03:28.671Z,13.80
2022-12-24T07:05:55.804Z,25.30
2022-12-24T07:08:22.983Z,19.70
2022-12-24T07:10:54.084Z,21.13
2022-12-24T07:13:21.742Z,24.87
2022-12-24T07:15:57.115Z,23.70
2022-12-24T07:18:24.252Z,19.73
2022-12-24T07:20:51.334Z,19.00
2022-12-24T07:23:18.493Z,27.27
2022-12-24T07:25:45.626Z,24.37
2022-12-24T07:28:12.780Z,24.50
2022-12-24T07:30:39.886Z,24.53
2022-12-24T07:33:08.407Z,25.27
2022-12-24T07:35:35.676Z,24.93
2022-12-24T07:38:02.982Z,18.63
2022-12-24T07:40:30.110Z,24.37
2022-12-24T07:42:57.243Z,21.20
2022-12-24T07:45:24.368Z,24.07
2022-12-24T07:47:51.473Z,23.43
2022-12-24T07:50:19.936Z,27.57
2022-12-24T07:52:47.064Z,23.93
2022-12-24T07:55:14.154Z,19.27
2022-12-24T07:57:41.272Z,29.70
2022-12-24T08:00:09.038Z,25.47
2022-12-24T08:02:39.199Z,28.83
2022-12-24T08:05:07.437Z,25.33
2022-12-24T08:07:36.038Z,28.43
2022-12-24T08:10:03.173Z,25.80
2022-12-24T08:12:30.292Z,24.73
2022-12-24T08:14:58.519Z,24.33
2022-12-24T08:17:30.353Z,24.10
2022-12-24T08:19:59.385Z,27.20
2022-12-24T08:22:26.557Z,22.60
2022-12-24T08:24:55.124Z,42.40
2022-12-24T08:27:22.211Z,18.73
2022-12-24T08:29:49.337Z,30.80
2022-12-24T08:32:16.440Z,21.67
2022-12-24T08:34:43.529Z,32.80
2022-12-24T08:37:10.684Z,22.40
2022-12-24T08:39:37.826Z,29.67
2022-12-24T08:42:06.488Z,21.10
2022-12-24T08:44:33.648Z,19.33
2022-12-24T08:47:00.749Z,23.67
2022-12-24T08:49:27.861Z,16.47
2022-12-24T08:51:54.968Z,17.87
2022-12-24T08:54:22.082Z,24.77
2022-12-24T08:56:49.160Z,23.60
2022-12-24T08:59:17.674Z,19.93
2022-12-24T09:01:44.897Z,16.50
2022-12-24T09:04:12.228Z,34.40
2022-12-24T09:06:39.315Z,27.73
2022-12-24T09:09:06.777Z,21.97
2022-12-24T09:11:34.509Z,26.93
2022-12-24T09:14:01.652Z,29.43
2022-12-24T09:16:30.162Z,38.57
2022-12-24T09:18:57.334Z,24.20
2022-12-24T09:21:24.465Z,28.97
2022-12-24T09:23:51.562Z,31.27
2022-12-24T09:26:21.883Z,27.73
2022-12-24T09:28:49.372Z,20.13
2022-12-24T09:31:16.928Z,26.73
2022-12-24T09:33:46.539Z,25.27
2022-12-24T09:36:13.700Z,25.63
2022-12-24T09:38:40.812Z,20.63
2022-12-24T09:41:14.898Z,31.80
2022-12-24T09:43:45.475Z,28.70
2022-12-24T09:46:15.227Z,22.50
2022-12-24T09:48:44.357Z,19.60
2022-12-24T09:51:25.402Z,25.30
2022-12-24T09:53:54.151Z,25.50
2022-12-24T09:56:22.648Z,24.03
2022-12-24T09:58:51.417Z,20.30
2022-12-24T10:01:19.413Z,25.90
2022-12-24T10:03:46.870Z,34.23
2022-12-24T10:06:17.940Z,27.93
2022-12-24T10:09:04.108Z,26.70
2022-12-24T10:11:36.203Z,41.10
2022-12-24T10:14:07.375Z,26.80
2022-12-24T10:16:40.596Z,22.50
2022-12-24T10:19:11.730Z,33.93
2022-12-24T10:21:44.067Z,30.30
2022-12-24T10:24:14.674Z,26.83
2022-12-24T10:26:45.010Z,19.93
2022-12-24T10:29:14.359Z,26.43
2022-12-24T10:31:45.509Z,32.63
2022-12-24T10:34:14.368Z,29.67
2022-12-24T10:36:42.801Z,27.70
2022-12-24T10:39:13.982Z,21.73
2022-12-24T10:41:41.299Z,22.47
2022-12-24T10:44:11.337Z,24.33
2022-12-24T10:46:39.465Z,29.70
2022-12-24T10:49:07.652Z,21.23
2022-12-24T10:51:38.122Z,22.67
2022-12-24T10:54:08.913Z,24.70
2022-12-24T10:56:40.496Z,22.23
2022-12-24T10:59:07.654Z,28.47
2022-12-24T11:01:44.964Z,20.37
2022-12-24T11:04:16.058Z,24.93
2022-12-24T11:06:52.223Z,35.33
2022-12-24T11:09:22.788Z,23.90
2022-12-24T11:11:50.079Z,47.43
2022-12-24T11:14:17.939Z,24.87
2022-12-24T11:16:50.358Z,26.43
2022-12-24T11:19:18.681Z,23.07
2022-12-24T11:21:45.857Z,26.67
2022-12-24T11:24:21.975Z,33.00
2022-12-24T11:26:50.528Z,31.67
2022-12-24T11:29:20.845Z,28.60
2022-12-24T11:31:48.265Z,21.10
2022-12-24T11:34:19.634Z,32.73
2022-12-24T11:36:46.763Z,22.47
2022-12-24T11:39:19.501Z,27.67
2022-12-24T11:41:47.094Z,31.00
2022-12-24T11:44:15.559Z,23.23
2022-12-24T11:46:43.434Z,25.97
2022-12-24T11:49:18.528Z,25.17
2022-12-24T11:52:01.140Z,25.00
2022-12-24T11:54:30.375Z,28.13
2022-12-24T11:56:58.639Z,26.57
2022-12-24T11:59:29.988Z,30.27
2022-12-24T12:01:59.192Z,21.17
2022-12-24T12:04:28.339Z,18.00
2022-12-24T12:06:57.274Z,22.53
2022-12-24T12:09:26.367Z,29.13
2022-12-24T12:11:54.679Z,20.27
2022-12-24T12:14:23.811Z,24.83
2022-12-24T12:16:56.756Z,25.40
2022-12-24T12:19:25.451Z,24.37
2022-12-24T12:21:52.862Z,24.57
2022-12-24T12:24:24.317Z,28.17
2022-12-24T12:27:01.745Z,17.60
2022-12-24T12:29:31.687Z,24.20
2022-12-24T12:32:05.465Z,32.90
2022-12-24T12:34:35.151Z,23.87
2022-12-24T12:37:11.063Z,13.60
2022-12-24T12:39:41.508Z,24.37
2022-12-24T12:42:10.677Z,23.90
2022-12-24T12:44:52.662Z,17.20
2022-12-24T12:47:37.726Z,26.00
2022-12-24T12:50:11.700Z,24.37
2022-12-24T12:52:45.728Z,19.50
2022-12-24T12:55:24.412Z,22.90
2022-12-24T12:57:53.349Z,20.43
2022-12-24T13:00:20.560Z,21.53
2022-12-24T13:03:00.872Z,20.67
2022-12-24T13:05:40.680Z,26.80
2022-12-24T13:08:19.173Z,23.90
2022-12-24T13:11:04.167Z,23.67
2022-12-24T13:13:45.606Z,27.47
2022-12-24T13:16:21.133Z,18.23
2022-12-24T13:18:58.109Z,14.43
2022-12-24T13:21:28.083Z,15.97
2022-12-24T13:24:05.239Z,22.20
2022-12-24T13:26:32.427Z,15.37
2022-12-24T13:29:27.515Z,16.30
2022-12-24T13:31:57.177Z,14.80
2022-12-24T13:34:34.197Z,23.07
2022-12-24T13:37:03.965Z,18.07
2022-12-24T13:40:02.120Z,19.60
2022-12-24T13:42:44.179Z,17.80
2022-12-24T13:45:29.988Z,17.30
2022-12-24T13:47:57.491Z,21.60
2022-12-24T13:50:29.056Z,17.30
2022-12-24T13:52:57.602Z,16.67
2022-12-24T13:55:24.747Z,12.23
2022-12-24T13:57:57.569Z,23.60
2022-12-24T14:00:38.846Z,16.47
2022-12-24T14:03:07.634Z,19.97
2022-12-24T14:05:36.700Z,16.03
2022-12-24T14:08:07.138Z,26.37
2022-12-24T14:10:37.196Z,21.67
2022-12-24T14:13:04.326Z,16.50
2022-12-24T14:16:04.567Z,20.50
2022-12-24T14:18:34.096Z,16.90
2022-12-24T14:21:01.860Z,24.30
2022-12-24T14:23:41.756Z,22.00
2022-12-24T14:26:12.470Z,13.33
2022-12-24T14:28:42.127Z,21.07
2022-12-24T14:31:14.414Z,20.87
2022-12-24T14:33:41.616Z,21.83
2022-12-24T14:36:09.630Z,25.30
2022-12-24T14:38:40.693Z,38.40
2022-12-24T14:41:12.375Z,27.47
2022-12-24T14:43:46.601Z,13.50
2022-12-24T14:46:18.256Z,11.80
2022-12-24T14:48:49.068Z,17.10
2022-12-24T14:51:19.997Z,24.00
2022-12-24T14:53:55.561Z,14.73
2022-12-24T14:56:22.968Z,16.73
2022-12-24T14:58:50.394Z,21.30
2022-12-24T15:01:21.921Z,17.30
2022-12-24T15:04:00.444Z,21.03
2022-12-24T15:06:27.940Z,16.07
2022-12-24T15:08:56.483Z,20.93
2022-12-24T15:11:23.886Z,21.10
2022-12-24T15:13:52.843Z,14.13
2022-12-24T15:16:23.241Z,21.13
2022-12-24T15:18:52.151Z,17.60
2022-12-24T15:21:21.161Z,22.93
2022-12-24T15:23:49.070Z,30.00
2022-12-24T15:26:20.679Z,26.37
2022-12-24T15:28:47.824Z,16.90
2022-12-24T15:31:15.769Z,45.90
2022-12-24T15:33:44.978Z,21.70
2022-12-24T15:36:12.477Z,28.83
2022-12-24T15:38:40.926Z,22.87
2022-12-24T15:41:15.744Z,22.07
2022-12-24T15:43:45.239Z,33.33
2022-12-24T15:46:18.497Z,26.40
2022-12-24T15:48:46.187Z,21.47
2022-12-24T15:51:13.466Z,22.77
2022-12-24T15:53:43.299Z,25.00
2022-12-24T15:56:11.803Z,21.30
2022-12-24T15:58:39.844Z,30.50
2022-12-24T16:01:21.934Z,25.33
2022-12-24T16:03:57.174Z,35.10
2022-12-24T16:06:24.599Z,34.47
2022-12-24T16:08:51.753Z,30.27
2022-12-24T16:11:19.993Z,19.30
2022-12-24T16:14:10.991Z,24.40
2022-12-24T16:16:39.395Z,25.73
2022-12-24T16:19:08.765Z,33.50
2022-12-24T16:21:37.490Z,25.30
2022-12-24T16:24:06.366Z,25.47
2022-12-24T16:26:33.659Z,22.33
2022-12-24T16:29:00.762Z,26.47
2022-12-24T16:31:32.424Z,16.43
2022-12-24T16:34:00.205Z,20.43
2022-12-24T16:36:29.004Z,15.10
2022-12-24T16:38:56.951Z,23.23
2022-12-24T16:41:24.139Z,19.57
2022-12-24T16:43:51.246Z,22.87
2022-12-24T16:46:18.633Z,19.73
2022-12-24T16:48:47.555Z,17.30
2022-12-24T16:51:14.720Z,29.33
2022-12-24T16:53:43.202Z,32.50
2022-12-24T16:56:10.329Z,19.53
2022-12-24T16:58:37.434Z,20.63
2022-12-24T17:01:08.925Z,33.30
2022-12-24T17:03:36.375Z,33.27
2022-12-24T17:06:05.375Z,24.87
2022-12-24T17:08:32.475Z,39.73
2022-12-24T17:11:00.944Z,31.13
2022-12-24T17:13:28.106Z,27.40
2022-12-24T17:15:55.301Z,33.90
2022-12-24T17:18:22.532Z,26.03
2022-12-24T17:20:57.575Z,30.27
2022-12-24T17:23:24.700Z,23.20
2022-12-24T17:25:51.800Z,26.10
2022-12-24T17:28:20.365Z,27.33
2022-12-24T17:30:47.512Z,33.17
2022-12-24T17:33:15.231Z,24.93
2022-12-24T17:35:42.420Z,35.57
2022-12-24T17:38:09.797Z,31.73
2022-12-24T17:40:36.959Z,38.33
2022-12-24T17:43:04.078Z,33.70
2022-12-24T17:45:32.554Z,39.57
2022-12-24T17:47:59.638Z,32.63
2022-12-24T17:50:26.784Z,37.87
2022-12-24T17:52:53.934Z,41.03
2022-12-24T17:55:21.036Z,43.40
2022-12-24T17:57:48.115Z,29.83
2022-12-24T18:00:15.946Z,35.10
2022-12-24T18:02:44.586Z,37.53
2022-12-24T18:05:11.782Z,27.47
2022-12-24T18:07:38.885Z,42.83
2022-12-24T18:10:06.365Z,38.37
2022-12-24T18:12:33.488Z,46.47
2022-12-24T18:15:00.601Z,36.30
2022-12-24T18:17:27.689Z,45.03
2022-12-24T18:19:56.145Z,27.27
2022-12-24T18:22:23.247Z,60.73
2022-12-24T18:24:50.376Z,31.23
2022-12-24T18:27:17.476Z,44.73
2022-12-24T18:29:44.610Z,47.70
2022-12-24T18:32:11.694Z,41.13
2022-12-24T18:34:38.803Z,38.33
2022-12-24T18:37:07.266Z,46.87
2022-12-24T18:39:34.488Z,39.20
2022-12-24T18:42:01.613Z,37.50
2022-12-24T18:44:28.738Z,46.47
2022-12-24T18:46:55.916Z,45.27
2022-12-24T18:49:23.051Z,47.90
2022-12-24T18:51:50.217Z,44.30
2022-12-24T18:54:18.675Z,35.17
2022-12-24T18:56:45.814Z,48.70
2022-12-24T18:59:12.918Z,37.97
2022-12-24T19:01:40.214Z,47.23
2022-12-24T19:04:07.435Z,34.70
2022-12-24T19:06:34.537Z,39.17
2022-12-24T19:09:02.153Z,33.67
2022-12-24T19:11:32.002Z,31.00
2022-12-24T19:13:59.735Z,27.40
2022-12-24T19:16:27.095Z,37.37
2022-12-24T19:18:54.321Z,32.57
2022-12-24T19:21:21.650Z,32.50
2022-12-24T19:23:48.952Z,28.93
2022-12-24T19:26:17.828Z,34.77
2022-12-24T19:28:46.370Z,40.60
2022-12-24T19:31:14.597Z,31.70
2022-12-24T19:33:43.717Z,34.40
2022-12-24T19:36:12.499Z,37.40
2022-12-24T19:38:39.635Z,27.80
2022-12-24T19:41:07.511Z,30.30
2022-12-24T19:43:37.121Z,38.37
2022-12-24T19:46:05.777Z,31.13
2022-12-24T19:48:33.167Z,31.97
2022-12-24T19:51:00.919Z,34.83
2022-12-24T19:53:28.057Z,39.47
2022-12-24T19:55:55.181Z,39.00
2022-12-24T19:58:22.366Z,43.73
2022-12-24T20:00:49.598Z,35.17
2022-12-24T20:03:18.282Z,36.20
2022-12-24T20:05:45.515Z,48.83
2022-12-24T20:08:12.644Z,31.83
2022-12-24T20:10:40.334Z,40.93
2022-12-24T20:13:07.738Z,40.27
2022-12-24T20:15:38.311Z,30.93
2022-12-24T20:18:05.674Z,34.03
2022-12-24T20:20:34.231Z,31.10
2022-12-24T20:23:01.722Z,29.20
2022-12-24T20:25:28.938Z,26.73
2022-12-24T20:27:56.045Z,31.03
2022-12-24T20:30:23.166Z,36.07
2022-12-24T20:32:53.006Z,27.63
2022-12-24T20:35:20.177Z,33.60
2022-12-24T20:37:48.676Z,27.97
2022-12-24T20:40:16.191Z,36.60
2022-12-24T20:42:43.328Z,29.50
2022-12-24T20:45:10.552Z,23.57
2022-12-24T20:47:38.909Z,34.70
2022-12-24T20:50:06.700Z,37.13
2022-12-24T20:52:33.851Z,37.33
2022-12-24T20:55:02.303Z,31.80
2022-12-24T20:57:35.878Z,30.00
2022-12-24T21:00:04.148Z,34.57
2022-12-24T21:02:31.439Z,29.57
2022-12-24T21:05:02.210Z,29.90
2022-12-24T21:07:29.827Z,34.07
2022-12-24T21:09:56.951Z,34.90
2022-12-24T21:12:25.445Z,31.63
2022-12-24T21:14:52.649Z,30.20
2022-12-24T21:17:19.843Z,31.90
2022-12-24T21:19:47.021Z,32.40
2022-12-24T21:22:14.178Z,41.40
2022-12-24T21:24:41.401Z,35.20
2022-12-24T21:27:08.530Z,37.13
2022-12-24T21:29:36.987Z,44.70
2022-12-24T21:32:04.122Z,34.17
2022-12-24T21:34:31.221Z,28.30
2022-12-24T21:36:58.328Z,34.10
2022-12-24T21:39:25.449Z,29.50
2022-12-24T21:41:52.583Z,31.57
2022-12-24T21:44:19.717Z,33.90
2022-12-24T21:46:48.160Z,34.10
2022-12-24T21:49:15.552Z,33.37
2022-12-24T21:51:43.176Z,33.00
2022-12-24T21:54:10.336Z,25.27
2022-12-24T21:56:37.739Z,36.80
2022-12-24T21:59:04.849Z,29.00
2022-12-24T22:01:32.052Z,35.77
2022-12-24T22:04:00.576Z,31.93
2022-12-24T22:06:28.363Z,20.90
2022-12-24T22:08:56.264Z,29.33
2022-12-24T22:11:23.385Z,34.97
2022-12-24T22:13:50.498Z,21.70
2022-12-24T22:16:17.664Z,24.77
2022-12-24T22:18:45.078Z,30.23
2022-12-24T22:21:13.536Z,24.20
2022-12-24T22:23:42.706Z,27.50
2022-12-24T22:26:13.167Z,23.93
2022-12-24T22:28:40.299Z,27.13
2022-12-24T22:31:07.519Z,24.10
2022-12-24T22:33:34.686Z,23.80
2022-12-24T22:36:03.810Z,22.07
2022-12-24T22:38:32.244Z,25.60
2022-12-24T22:40:59.364Z,29.50
2022-12-24T22:43:26.461Z,22.37
2022-12-24T22:45:53.598Z,24.83
2022-12-24T22:48:20.709Z,21.23
2022-12-24T22:50:47.864Z,21.10
2022-12-24T22:53:14.966Z,25.90
2022-12-24T22:55:43.439Z,23.70
2022-12-24T22:58:10.546Z,22.03
2022-12-24T23:00:39.638Z,20.80
2022-12-24T23:03:06.987Z,19.70
2022-12-24T23:05:34.282Z,21.43
2022-12-24T23:08:01.711Z,23.60
2022-12-24T23:10:28.973Z,15.30
2022-12-24T23:12:57.416Z,29.27
2022-12-24T23:15:24.533Z,17.27
2022-12-24T23:17:51.668Z,19.90
2022-12-24T23:20:18.858Z,19.80
2022-12-24T23:22:45.990Z,19.47
2022-12-24T23:25:13.098Z,25.63
2022-12-24T23:27:40.232Z,24.60
2022-12-24T23:30:09.765Z,19.37
2022-12-24T23:32:36.911Z,18.07
2022-12-24T23:35:04.178Z,19.70
2022-12-24T23:37:35.460Z,21.87
2022-12-24T23:40:02.848Z,18.67
2022-12-24T23:42:29.950Z,23.90
2022-12-24T23:44:57.057Z,21.70
2022-12-24T23:47:25.524Z,20.97
2022-12-24T23:49:52.640Z,16.03
2022-12-24T23:52:19.793Z,20.10
2022-12-24T23:54:46.906Z,18.37
2022-12-24T23:57:14.017Z,23.27
2022-12-24T23:59:41.132Z,24.20
